Scout — WCZ2046 — position and weather

sailwx.info

Track history (hours):
 
Tides and Currents Weather Stations Pressure Air Temp Water Temp Dewpoint Dewpoint Depression Visibility Wind Speed Wind Dir Waves Ship Positions

Scout

Owner: Crowley Marine Services, SEATTLE, WA. More information available from US FCC via Universal Licensing System and Coast Guard Vessel Documentation Center.

Last reported at 2016-Aug-25 21:33 UTC. Time now 2016-Aug-25 22:03 UTC.
Position N 32°42' W 117°09'.

; draft 5.6 m.

Type: Tug. MMSI: 366764730.

Date/timePositionNaut miles runAvg speedWind from/ knotsBaromVisibWave heightAir tempDewpointWater temp
2016-Aug-25 21:33N 32°42' W 117°09'0 0.0
2016-Aug-25 20:34N 32°42' W 117°09'0 0.0
2016-Aug-25 19:33N 32°42' W 117°09'0 0.0
2016-Aug-25 18:33N 32°42' W 117°09'0 0.0
2016-Aug-25 17:33N 32°42' W 117°09'0 0.0
2016-Aug-25 16:15N 32°42' W 117°09'0 0.0
2016-Aug-25 14:30N 32°42' W 117°09'0 0.0
2016-Aug-25 12:26N 32°42' W 117°09'0 0.0
2016-Aug-25 11:33N 32°42' W 117°09'2 2.3
2016-Aug-25 10:33N 32°40' W 117°08'2 2.2
2016-Aug-25 09:32N 32°42' W 117°09'0 0.0
2016-Aug-25 08:04N 32°42' W 117°09'0 0.0
2016-Aug-24 23:32N 32°42' W 117°09'0 0.0
2016-Aug-24 22:32N 32°42' W 117°09'0 0.0
2016-Aug-24 21:26N 32°42' W 117°09'0 0.0
2016-Aug-24 20:16N 32°42' W 117°09'0 0.0
2016-Aug-24 17:31N 32°42' W 117°09'0 0.0
2016-Aug-24 16:31N 32°42' W 117°09'0 0.1
2016-Aug-24 15:33N 32°42' W 117°09'0 0.0
2016-Aug-24 14:31N 32°42' W 117°09'0 0.0
2016-Aug-24 13:33N 32°42' W 117°09'0 0.0
2016-Aug-24 12:32N 32°42' W 117°09'0 0.0
2016-Aug-24 11:25N 32°42' W 117°09'0 0.0
2016-Aug-24 10:25N 32°42' W 117°09'0 0.0
2016-Aug-24 09:25N 32°42' W 117°09'0 0.0
2016-Aug-24 08:32N 32°42' W 117°09'0 0.0
2016-Aug-24 07:27N 32°42' W 117°09'0 0.0
2016-Aug-24 06:28N 32°42' W 117°09'0 0.0
2016-Aug-24 01:03N 32°42' W 117°09'0 0.0
2016-Aug-23 22:21N 32°42' W 117°09'0 0.1
2016-Aug-23 21:33N 32°42' W 117°09'0 0.0
2016-Aug-23 20:31N 32°42' W 117°09'0 0.0
2016-Aug-23 19:31N 32°42' W 117°09'0 0.0
2016-Aug-23 18:33N 32°42' W 117°09'0 0.0
2016-Aug-23 17:31N 32°42' W 117°09'0 0.0
2016-Aug-23 16:33N 32°42' W 117°09'0 0.0
2016-Aug-23 15:14N 32°42' W 117°09'0 0.1
2016-Aug-23 14:26N 32°42' W 117°09'1 1.2
2016-Aug-23 13:33N 32°41' W 117°08'0 0.2
2016-Aug-23 12:33N 32°41' W 117°08'1 0.6
2016-Aug-23 10:31N 32°42' W 117°09'0 0.0
2016-Aug-23 09:34N 32°42' W 117°09'0 0.5
2016-Aug-23 08:34N 32°41' W 117°09'0 0.1
2016-Aug-23 07:33N 32°41' W 117°09'1 0.1
2016-Aug-22 23:11N 32°42' W 117°09'0 0.0
2016-Aug-22 22:28N 32°42' W 117°09'0 0.0
2016-Aug-22 21:31N 32°42' W 117°09'0 0.0
2016-Aug-22 20:33N 32°42' W 117°09'0 0.0
2016-Aug-22 19:18N 32°42' W 117°09'0 0.0
2016-Aug-22 18:28N 32°42' W 117°09'0 0.0
2016-Aug-22 16:33N 32°42' W 117°09'0 0.1
2016-Aug-22 15:34N 32°42' W 117°09'0 0.0
2016-Aug-22 14:33N 32°42' W 117°09'0 0.1
2016-Aug-22 13:33N 32°42' W 117°09'0 0.1
2016-Aug-22 12:34N 32°42' W 117°09'0 0.1
2016-Aug-22 11:34N 32°42' W 117°09'0 0.0
2016-Aug-22 10:33N 32°42' W 117°09'0 0.0
2016-Aug-22 09:33N 32°42' W 117°09'0 0.0
2016-Aug-22 08:30N 32°42' W 117°09'0 0.0
2016-Aug-22 07:34N 32°42' W 117°09'0 0.0
2016-Aug-22 06:33N 32°42' W 117°09'0 0.0
2016-Aug-22 04:34N 32°42' W 117°09'0 0.0
2016-Aug-22 01:20N 32°42' W 117°09'3 3.2
2016-Aug-22 00:32N 32°40' W 117°07'1 0.5
2016-Aug-21 21:33N 32°41' W 117°08'1 0.6
2016-Aug-21 20:33N 32°40' W 117°08'2 1.6
2016-Aug-21 19:29N 32°42' W 117°09'0 0.0
2016-Aug-21 18:14N 32°42' W 117°09'0 0.0
2016-Aug-21 17:31N 32°42' W 117°09'0 0.0
2016-Aug-21 16:11N 32°42' W 117°09'0 0.1
2016-Aug-21 15:33N 32°42' W 117°09'0 0.0
2016-Aug-21 14:33N 32°42' W 117°09'0 0.1
2016-Aug-21 13:34N 32°42' W 117°09'0 0.0
2016-Aug-21 11:33N 32°42' W 117°09'0 0.0
2016-Aug-21 10:32N 32°42' W 117°09'0 0.0
2016-Aug-21 09:30N 32°42' W 117°09'0 0.0
2016-Aug-21 08:31N 32°42' W 117°09'3 2.8
2016-Aug-21 07:31N 32°39' W 117°07'3 2.9
2016-Aug-21 06:33N 32°42' W 117°09'0 0.1
2016-Aug-21 01:33N 32°41' W 117°09'3 3.0
2016-Aug-21 00:33N 32°39' W 117°07'3 0.7
2016-Aug-20 19:29N 32°42' W 117°09'0 0.0
2016-Aug-20 18:25N 32°42' W 117°09'0 0.0
2016-Aug-20 14:11N 32°42' W 117°09'0 0.0
2016-Aug-20 13:25N 32°42' W 117°09'0 0.0
2016-Aug-20 12:28N 32°42' W 117°09'0 0.1
2016-Aug-20 11:28N 32°42' W 117°09'0 0.1
2016-Aug-20 10:33N 32°42' W 117°09'0 0.0
2016-Aug-20 09:29N 32°42' W 117°09'0 0.0
2016-Aug-20 05:26N 32°42' W 117°09'2 0.3
2016-Aug-20 00:30N 32°40' W 117°08'2 1.9
2016-Aug-19 23:34N 32°39' W 117°07'3 0.4
2016-Aug-19 15:33N 32°42' W 117°09'0 0.1
2016-Aug-19 14:32N 32°42' W 117°09'0 0.0
2016-Aug-19 13:33N 32°42' W 117°09'0 0.0
2016-Aug-19 12:33N 32°42' W 117°09'0 0.0
2016-Aug-19 11:33N 32°42' W 117°09'0 0.0
2016-Aug-19 10:33N 32°42' W 117°09'0 0.0
2016-Aug-19 09:34N 32°42' W 117°09'0 0.0
2016-Aug-19 08:23N 32°42' W 117°09'0 0.0
2016-Aug-19 04:33N 32°42' W 117°09'0 0.0
2016-Aug-19 03:33N 32°42' W 117°09'0 0.0
2016-Aug-18 22:18N 32°42' W 117°09'0 0.0
2016-Aug-18 21:33N 32°42' W 117°09'0 0.0
2016-Aug-18 20:15N 32°42' W 117°09'0 0.0
2016-Aug-18 19:21N 32°42' W 117°09'0 0.0
2016-Aug-18 18:34N 32°42' W 117°09'0 0.0
2016-Aug-18 17:33N 32°42' W 117°09'0 0.0
2016-Aug-18 16:33N 32°42' W 117°09'0 0.0
2016-Aug-18 15:32N 32°42' W 117°09'0 0.3
2016-Aug-18 14:33N 32°42' W 117°09'0 0.2
2016-Aug-18 13:14N 32°42' W 117°10'4 5.4
2016-Aug-18 12:32N 32°39' W 117°07'3 3.4
2016-Aug-18 11:33N 32°42' W 117°09'0 0.0
2016-Aug-18 10:31N 32°42' W 117°09'0 0.0
2016-Aug-18 09:33N 32°42' W 117°09'0 0.0
2016-Aug-18 08:28N 32°42' W 117°09'0 0.0
2016-Aug-18 07:23N 32°42' W 117°09'0 0.0
2016-Aug-18 06:27N 32°42' W 117°09'0 0.0
2016-Aug-18 05:26N 32°42' W 117°09'0 0.0
2016-Aug-18 04:10N 32°42' W 117°09'0 0.0
2016-Aug-18 03:33N 32°42' W 117°09'0 0.0
2016-Aug-18 02:31N 32°42' W 117°09'0 0.0
2016-Aug-18 01:33N 32°42' W 117°09'0 0.0
2016-Aug-18 00:33N 32°42' W 117°09'0 0.0
2016-Aug-17 23:30N 32°42' W 117°09'0 0.0
2016-Aug-17 22:33N 32°42' W 117°09'0 0.0
2016-Aug-17 21:32N 32°42' W 117°09'0 0.0
2016-Aug-17 20:34N 32°42' W 117°09'0 0.0
2016-Aug-17 19:32N 32°42' W 117°09'0 0.0
2016-Aug-17 18:33N 32°42' W 117°09'0 0.0
2016-Aug-17 17:22N 32°42' W 117°09'0 0.0
2016-Aug-17 16:33N 32°42' W 117°09'0 0.0
2016-Aug-17 15:33N 32°42' W 117°09'0 0.0
2016-Aug-17 14:33N 32°42' W 117°09'0 0.0
2016-Aug-17 13:33N 32°42' W 117°09'0 0.0
2016-Aug-17 12:33N 32°42' W 117°09'0 0.0
2016-Aug-17 11:33N 32°42' W 117°09'0 0.0
2016-Aug-17 10:33N 32°42' W 117°09'0 0.0
2016-Aug-17 09:33N 32°42' W 117°09'0 0.0
2016-Aug-17 08:31N 32°42' W 117°09'0 0.1
2016-Aug-17 07:34N 32°42' W 117°09'0 0.0
2016-Aug-17 06:32N 32°42' W 117°09'0 0.0
2016-Aug-17 05:31N 32°42' W 117°09'0 0.0
2016-Aug-17 04:33N 32°42' W 117°09'0 0.0
2016-Aug-17 01:09N 32°42' W 117°09'0 0.2
2016-Aug-17 00:34N 32°42' W 117°09'3 2.9
2016-Aug-16 23:34N 32°39' W 117°07'3 2.9
2016-Aug-16 22:32N 32°42' W 117°09'0 0.0
2016-Aug-16 21:33N 32°42' W 117°09'0 0.0
2016-Aug-16 20:26N 32°42' W 117°09'0 0.0
2016-Aug-16 19:33N 32°42' W 117°09'0 0.0
2016-Aug-16 18:33N 32°42' W 117°09'0 0.0
2016-Aug-16 17:17N 32°42' W 117°09'0 0.0
2016-Aug-16 14:29N 32°42' W 117°09'3 2.1
2016-Aug-16 13:13N 32°40' W 117°07'3 1.3
2016-Aug-16 11:15N 32°42' W 117°09'0 0.0
2016-Aug-16 10:33N 32°42' W 117°09'0 0.0
2016-Aug-16 09:32N 32°42' W 117°09'0 0.0
2016-Aug-16 08:22N 32°42' W 117°09'0 0.0
2016-Aug-15 23:32N 32°42' W 117°09'2 2.3
2016-Aug-15 22:33N 32°40' W 117°08'  
Track history (hours):
 
Tides and Currents Weather Stations Pressure Air Temp Water Temp Dewpoint Dewpoint Depression Visibility Wind Speed Wind Dir Waves Ship Positions

Scout

Owner: Crowley Marine Services, SEATTLE, WA. More information available from US FCC via Universal Licensing System and Coast Guard Vessel Documentation Center.

Last reported at 2016-Aug-25 21:33 UTC. Time now 2016-Aug-25 22:03 UTC.
Position N 32°42' W 117°09'.

; draft 5.6 m.

Type: Tug. MMSI: 366764730.

Date/timePositionNaut miles runAvg speedWind from/ knotsBaromVisibWave heightAir tempDewpointWater temp
2016-Aug-25 21:33N 32°42' W 117°09'0 0.0
2016-Aug-25 20:34N 32°42' W 117°09'0 0.0
2016-Aug-25 19:33N 32°42' W 117°09'0 0.0
2016-Aug-25 18:33N 32°42' W 117°09'0 0.0
2016-Aug-25 17:33N 32°42' W 117°09'0 0.0
2016-Aug-25 16:15N 32°42' W 117°09'0 0.0
2016-Aug-25 14:30N 32°42' W 117°09'0 0.0
2016-Aug-25 12:26N 32°42' W 117°09'0 0.0
2016-Aug-25 11:33N 32°42' W 117°09'2 2.3
2016-Aug-25 10:33N 32°40' W 117°08'2 2.2
2016-Aug-25 09:32N 32°42' W 117°09'0 0.0
2016-Aug-25 08:04N 32°42' W 117°09'0 0.0
2016-Aug-24 23:32N 32°42' W 117°09'0 0.0
2016-Aug-24 22:32N 32°42' W 117°09'0 0.0
2016-Aug-24 21:26N 32°42' W 117°09'0 0.0
2016-Aug-24 20:16N 32°42' W 117°09'0 0.0
2016-Aug-24 17:31N 32°42' W 117°09'0 0.0
2016-Aug-24 16:31N 32°42' W 117°09'0 0.1
2016-Aug-24 15:33N 32°42' W 117°09'0 0.0
2016-Aug-24 14:31N 32°42' W 117°09'0 0.0
2016-Aug-24 13:33N 32°42' W 117°09'0 0.0
2016-Aug-24 12:32N 32°42' W 117°09'0 0.0
2016-Aug-24 11:25N 32°42' W 117°09'0 0.0
2016-Aug-24 10:25N 32°42' W 117°09'0 0.0
2016-Aug-24 09:25N 32°42' W 117°09'0 0.0
2016-Aug-24 08:32N 32°42' W 117°09'0 0.0
2016-Aug-24 07:27N 32°42' W 117°09'0 0.0
2016-Aug-24 06:28N 32°42' W 117°09'0 0.0
2016-Aug-24 01:03N 32°42' W 117°09'0 0.0
2016-Aug-23 22:21N 32°42' W 117°09'0 0.1
2016-Aug-23 21:33N 32°42' W 117°09'0 0.0
2016-Aug-23 20:31N 32°42' W 117°09'0 0.0
2016-Aug-23 19:31N 32°42' W 117°09'0 0.0
2016-Aug-23 18:33N 32°42' W 117°09'0 0.0
2016-Aug-23 17:31N 32°42' W 117°09'0 0.0
2016-Aug-23 16:33N 32°42' W 117°09'0 0.0
2016-Aug-23 15:14N 32°42' W 117°09'0 0.1
2016-Aug-23 14:26N 32°42' W 117°09'1 1.2
2016-Aug-23 13:33N 32°41' W 117°08'0 0.2
2016-Aug-23 12:33N 32°41' W 117°08'1 0.6
2016-Aug-23 10:31N 32°42' W 117°09'0 0.0
2016-Aug-23 09:34N 32°42' W 117°09'0 0.5
2016-Aug-23 08:34N 32°41' W 117°09'0 0.1
2016-Aug-23 07:33N 32°41' W 117°09'1 0.1
2016-Aug-22 23:11N 32°42' W 117°09'0 0.0
2016-Aug-22 22:28N 32°42' W 117°09'0 0.0
2016-Aug-22 21:31N 32°42' W 117°09'0 0.0
2016-Aug-22 20:33N 32°42' W 117°09'0 0.0
2016-Aug-22 19:18N 32°42' W 117°09'0 0.0
2016-Aug-22 18:28N 32°42' W 117°09'0 0.0
2016-Aug-22 16:33N 32°42' W 117°09'0 0.1
2016-Aug-22 15:34N 32°42' W 117°09'0 0.0
2016-Aug-22 14:33N 32°42' W 117°09'0 0.1
2016-Aug-22 13:33N 32°42' W 117°09'0 0.1
2016-Aug-22 12:34N 32°42' W 117°09'0 0.1
2016-Aug-22 11:34N 32°42' W 117°09'0 0.0
2016-Aug-22 10:33N 32°42' W 117°09'0 0.0
2016-Aug-22 09:33N 32°42' W 117°09'0 0.0
2016-Aug-22 08:30N 32°42' W 117°09'0 0.0
2016-Aug-22 07:34N 32°42' W 117°09'0 0.0
2016-Aug-22 06:33N 32°42' W 117°09'0 0.0
2016-Aug-22 04:34N 32°42' W 117°09'0 0.0
2016-Aug-22 01:20N 32°42' W 117°09'3 3.2
2016-Aug-22 00:32N 32°40' W 117°07'1 0.5
2016-Aug-21 21:33N 32°41' W 117°08'1 0.6
2016-Aug-21 20:33N 32°40' W 117°08'2 1.6
2016-Aug-21 19:29N 32°42' W 117°09'0 0.0
2016-Aug-21 18:14N 32°42' W 117°09'0 0.0
2016-Aug-21 17:31N 32°42' W 117°09'0 0.0
2016-Aug-21 16:11N 32°42' W 117°09'0 0.1
2016-Aug-21 15:33N 32°42' W 117°09'0 0.0
2016-Aug-21 14:33N 32°42' W 117°09'0 0.1
2016-Aug-21 13:34N 32°42' W 117°09'0 0.0
2016-Aug-21 11:33N 32°42' W 117°09'0 0.0
2016-Aug-21 10:32N 32°42' W 117°09'0 0.0
2016-Aug-21 09:30N 32°42' W 117°09'0 0.0
2016-Aug-21 08:31N 32°42' W 117°09'3 2.8
2016-Aug-21 07:31N 32°39' W 117°07'3 2.9
2016-Aug-21 06:33N 32°42' W 117°09'0 0.1
2016-Aug-21 01:33N 32°41' W 117°09'3 3.0
2016-Aug-21 00:33N 32°39' W 117°07'3 0.7
2016-Aug-20 19:29N 32°42' W 117°09'0 0.0
2016-Aug-20 18:25N 32°42' W 117°09'0 0.0
2016-Aug-20 14:11N 32°42' W 117°09'0 0.0
2016-Aug-20 13:25N 32°42' W 117°09'0 0.0
2016-Aug-20 12:28N 32°42' W 117°09'0 0.1
2016-Aug-20 11:28N 32°42' W 117°09'0 0.1
2016-Aug-20 10:33N 32°42' W 117°09'0 0.0
2016-Aug-20 09:29N 32°42' W 117°09'0 0.0
2016-Aug-20 05:26N 32°42' W 117°09'2 0.3
2016-Aug-20 00:30N 32°40' W 117°08'2 1.9
2016-Aug-19 23:34N 32°39' W 117°07'3 0.4
2016-Aug-19 15:33N 32°42' W 117°09'0 0.1
2016-Aug-19 14:32N 32°42' W 117°09'0 0.0
2016-Aug-19 13:33N 32°42' W 117°09'0 0.0
2016-Aug-19 12:33N 32°42' W 117°09'0 0.0
2016-Aug-19 11:33N 32°42' W 117°09'0 0.0
2016-Aug-19 10:33N 32°42' W 117°09'0 0.0
2016-Aug-19 09:34N 32°42' W 117°09'0 0.0
2016-Aug-19 08:23N 32°42' W 117°09'0 0.0
2016-Aug-19 04:33N 32°42' W 117°09'0 0.0
2016-Aug-19 03:33N 32°42' W 117°09'0 0.0
2016-Aug-18 22:18N 32°42' W 117°09'0 0.0
2016-Aug-18 21:33N 32°42' W 117°09'0 0.0
2016-Aug-18 20:15N 32°42' W 117°09'0 0.0
2016-Aug-18 19:21N 32°42' W 117°09'0 0.0
2016-Aug-18 18:34N 32°42' W 117°09'0 0.0
2016-Aug-18 17:33N 32°42' W 117°09'0 0.0
2016-Aug-18 16:33N 32°42' W 117°09'0 0.0
2016-Aug-18 15:32N 32°42' W 117°09'0 0.3
2016-Aug-18 14:33N 32°42' W 117°09'0 0.2
2016-Aug-18 13:14N 32°42' W 117°10'4 5.4
2016-Aug-18 12:32N 32°39' W 117°07'3 3.4
2016-Aug-18 11:33N 32°42' W 117°09'0 0.0
2016-Aug-18 10:31N 32°42' W 117°09'0 0.0
2016-Aug-18 09:33N 32°42' W 117°09'0 0.0
2016-Aug-18 08:28N 32°42' W 117°09'0 0.0
2016-Aug-18 07:23N 32°42' W 117°09'0 0.0
2016-Aug-18 06:27N 32°42' W 117°09'0 0.0
2016-Aug-18 05:26N 32°42' W 117°09'0 0.0
2016-Aug-18 04:10N 32°42' W 117°09'0 0.0
2016-Aug-18 03:33N 32°42' W 117°09'0 0.0
2016-Aug-18 02:31N 32°42' W 117°09'0 0.0
2016-Aug-18 01:33N 32°42' W 117°09'0 0.0
2016-Aug-18 00:33N 32°42' W 117°09'0 0.0
2016-Aug-17 23:30N 32°42' W 117°09'0 0.0
2016-Aug-17 22:33N 32°42' W 117°09'0 0.0
2016-Aug-17 21:32N 32°42' W 117°09'0 0.0
2016-Aug-17 20:34N 32°42' W 117°09'0 0.0
2016-Aug-17 19:32N 32°42' W 117°09'0 0.0
2016-Aug-17 18:33N 32°42' W 117°09'0 0.0
2016-Aug-17 17:22N 32°42' W 117°09'0 0.0
2016-Aug-17 16:33N 32°42' W 117°09'0 0.0
2016-Aug-17 15:33N 32°42' W 117°09'0 0.0
2016-Aug-17 14:33N 32°42' W 117°09'0 0.0
2016-Aug-17 13:33N 32°42' W 117°09'0 0.0
2016-Aug-17 12:33N 32°42' W 117°09'0 0.0
2016-Aug-17 11:33N 32°42' W 117°09'0 0.0
2016-Aug-17 10:33N 32°42' W 117°09'0 0.0
2016-Aug-17 09:33N 32°42' W 117°09'0 0.0
2016-Aug-17 08:31N 32°42' W 117°09'0 0.1
2016-Aug-17 07:34N 32°42' W 117°09'0 0.0
2016-Aug-17 06:32N 32°42' W 117°09'0 0.0
2016-Aug-17 05:31N 32°42' W 117°09'0 0.0
2016-Aug-17 04:33N 32°42' W 117°09'0 0.0
2016-Aug-17 01:09N 32°42' W 117°09'0 0.2
2016-Aug-17 00:34N 32°42' W 117°09'3 2.9
2016-Aug-16 23:34N 32°39' W 117°07'3 2.9
2016-Aug-16 22:32N 32°42' W 117°09'0 0.0
2016-Aug-16 21:33N 32°42' W 117°09'0 0.0
2016-Aug-16 20:26N 32°42' W 117°09'0 0.0
2016-Aug-16 19:33N 32°42' W 117°09'0 0.0
2016-Aug-16 18:33N 32°42' W 117°09'0 0.0
2016-Aug-16 17:17N 32°42' W 117°09'0 0.0
2016-Aug-16 14:29N 32°42' W 117°09'3 2.1
2016-Aug-16 13:13N 32°40' W 117°07'3 1.3
2016-Aug-16 11:15N 32°42' W 117°09'0 0.0
2016-Aug-16 10:33N 32°42' W 117°09'0 0.0
2016-Aug-16 09:32N 32°42' W 117°09'0 0.0
2016-Aug-16 08:22N 32°42' W 117°09'0 0.0
2016-Aug-15 23:32N 32°42' W 117°09'2 2.3
2016-Aug-15 22:33N 32°40' W 117°08'  

Dump ship's entire track history